sensor_id;sensor_type;location;lat;lon;timestamp;P1;durP1;ratioP1;P2;durP2;ratioP2
59788;SDS011;47353;51.614;5.530;2023-12-20T00:01:00;18.00;;;9.13;;
59788;SDS011;47353;51.614;5.530;2023-12-20T00:03:25;15.90;;;8.63;;
59788;SDS011;47353;51.614;5.530;2023-12-20T00:05:51;19.10;;;8.65;;
59788;SDS011;47353;51.614;5.530;2023-12-20T00:08:16;12.65;;;7.35;;
59788;SDS011;47353;51.614;5.530;2023-12-20T00:10:43;16.15;;;7.20;;
59788;SDS011;47353;51.614;5.530;2023-12-20T00:13:08;16.40;;;6.55;;
59788;SDS011;47353;51.614;5.530;2023-12-20T00:15:34;15.73;;;6.22;;
59788;SDS011;47353;51.614;5.530;2023-12-20T00:17:59;13.05;;;5.93;;
59788;SDS011;47353;51.614;5.530;2023-12-20T00:20:25;12.70;;;5.68;;
59788;SDS011;47353;51.614;5.530;2023-12-20T00:22:51;12.48;;;4.95;;
59788;SDS011;47353;51.614;5.530;2023-12-20T00:25:17;13.50;;;5.15;;
59788;SDS011;47353;51.614;5.530;2023-12-20T00:27:42;14.45;;;4.25;;
59788;SDS011;47353;51.614;5.530;2023-12-20T00:30:08;15.05;;;4.32;;
59788;SDS011;47353;51.614;5.530;2023-12-20T00:32:35;14.70;;;4.38;;
59788;SDS011;47353;51.614;5.530;2023-12-20T00:35:01;12.55;;;3.70;;
59788;SDS011;47353;51.614;5.530;2023-12-20T00:37:26;11.25;;;4.07;;
59788;SDS011;47353;51.614;5.530;2023-12-20T00:39:51;9.95;;;3.60;;
59788;SDS011;47353;51.614;5.530;2023-12-20T00:42:17;9.13;;;3.38;;
59788;SDS011;47353;51.614;5.530;2023-12-20T00:44:42;10.32;;;3.67;;
59788;SDS011;47353;51.614;5.530;2023-12-20T00:47:07;11.40;;;3.25;;
59788;SDS011;47353;51.614;5.530;2023-12-20T00:49:33;10.35;;;3.50;;
59788;SDS011;47353;51.614;5.530;2023-12-20T00:51:58;11.52;;;3.00;;
59788;SDS011;47353;51.614;5.530;2023-12-20T00:54:24;12.25;;;3.10;;
59788;SDS011;47353;51.614;5.530;2023-12-20T00:56:49;14.60;;;2.80;;
59788;SDS011;47353;51.614;5.530;2023-12-20T00:59:16;10.98;;;2.60;;
59788;SDS011;47353;51.614;5.530;2023-12-20T01:01:41;12.80;;;2.88;;
59788;SDS011;47353;51.614;5.530;2023-12-20T01:04:07;14.15;;;2.60;;
59788;SDS011;47353;51.614;5.530;2023-12-20T01:06:32;12.50;;;2.97;;
59788;SDS011;47353;51.614;5.530;2023-12-20T01:08:58;10.70;;;2.85;;
59788;SDS011;47353;51.614;5.530;2023-12-20T01:11:23;12.32;;;2.58;;
59788;SDS011;47353;51.614;5.530;2023-12-20T01:13:49;19.23;;;2.72;;
59788;SDS011;47353;51.614;5.530;2023-12-20T01:16:14;10.13;;;2.40;;
59788;SDS011;47353;51.614;5.530;2023-12-20T01:18:39;14.85;;;2.88;;
59788;SDS011;47353;51.614;5.530;2023-12-20T01:21:05;10.30;;;2.80;;
59788;SDS011;47353;51.614;5.530;2023-12-20T01:23:31;8.60;;;2.50;;
59788;SDS011;47353;51.614;5.530;2023-12-20T01:25:58;11.73;;;3.30;;
59788;SDS011;47353;51.614;5.530;2023-12-20T01:28:28;11.10;;;2.80;;
59788;SDS011;47353;51.614;5.530;2023-12-20T01:30:53;12.63;;;3.03;;
59788;SDS011;47353;51.614;5.530;2023-12-20T01:33:19;11.98;;;2.72;;
59788;SDS011;47353;51.614;5.530;2023-12-20T01:35:44;13.35;;;2.80;;
59788;SDS011;47353;51.614;5.530;2023-12-20T01:38:09;13.13;;;2.95;;
59788;SDS011;47353;51.614;5.530;2023-12-20T01:40:35;12.13;;;2.70;;
59788;SDS011;47353;51.614;5.530;2023-12-20T01:43:01;14.48;;;2.70;;
59788;SDS011;47353;51.614;5.530;2023-12-20T01:45:27;7.60;;;2.35;;
59788;SDS011;47353;51.614;5.530;2023-12-20T01:47:54;9.85;;;2.47;;
59788;SDS011;47353;51.614;5.530;2023-12-20T01:50:21;12.02;;;2.35;;
59788;SDS011;47353;51.614;5.530;2023-12-20T01:52:47;13.43;;;3.08;;
59788;SDS011;47353;51.614;5.530;2023-12-20T01:55:13;17.52;;;2.80;;
59788;SDS011;47353;51.614;5.530;2023-12-20T01:57:43;13.77;;;2.80;;
59788;SDS011;47353;51.614;5.530;2023-12-20T02:00:09;9.07;;;2.22;;
59788;SDS011;47353;51.614;5.530;2023-12-20T02:02:37;10.88;;;2.72;;
59788;SDS011;47353;51.614;5.530;2023-12-20T02:05:07;12.25;;;2.80;;
59788;SDS011;47353;51.614;5.530;2023-12-20T02:07:34;10.88;;;3.20;;
59788;SDS011;47353;51.614;5.530;2023-12-20T02:10:00;14.90;;;2.90;;
59788;SDS011;47353;51.614;5.530;2023-12-20T02:12:26;16.80;;;3.15;;
59788;SDS011;47353;51.614;5.530;2023-12-20T02:14:51;9.90;;;2.83;;
59788;SDS011;47353;51.614;5.530;2023-12-20T02:17:17;16.85;;;3.08;;
59788;SDS011;47353;51.614;5.530;2023-12-20T02:19:43;12.60;;;3.22;;
59788;SDS011;47353;51.614;5.530;2023-12-20T02:22:09;15.10;;;3.95;;
59788;SDS011;47353;51.614;5.530;2023-12-20T02:24:38;12.02;;;3.00;;
59788;SDS011;47353;51.614;5.530;2023-12-20T02:27:04;9.32;;;2.65;;
59788;SDS011;47353;51.614;5.530;2023-12-20T02:29:32;14.45;;;3.25;;
59788;SDS011;47353;51.614;5.530;2023-12-20T02:31:58;16.67;;;3.17;;
59788;SDS011;47353;51.614;5.530;2023-12-20T02:34:23;16.38;;;3.58;;
59788;SDS011;47353;51.614;5.530;2023-12-20T02:36:49;13.40;;;2.83;;
59788;SDS011;47353;51.614;5.530;2023-12-20T02:39:14;17.65;;;3.70;;
59788;SDS011;47353;51.614;5.530;2023-12-20T02:41:40;14.43;;;3.20;;
59788;SDS011;47353;51.614;5.530;2023-12-20T02:44:05;15.13;;;3.40;;
59788;SDS011;47353;51.614;5.530;2023-12-20T02:46:30;14.73;;;3.50;;
59788;SDS011;47353;51.614;5.530;2023-12-20T02:48:56;11.63;;;3.10;;
59788;SDS011;47353;51.614;5.530;2023-12-20T02:51:21;12.63;;;3.38;;
59788;SDS011;47353;51.614;5.530;2023-12-20T02:53:46;12.20;;;3.53;;
59788;SDS011;47353;51.614;5.530;2023-12-20T02:56:12;13.95;;;3.33;;
59788;SDS011;47353;51.614;5.530;2023-12-20T02:58:38;12.48;;;3.05;;
59788;SDS011;47353;51.614;5.530;2023-12-20T03:01:04;13.90;;;3.30;;
59788;SDS011;47353;51.614;5.530;2023-12-20T03:03:29;18.02;;;3.13;;
59788;SDS011;47353;51.614;5.530;2023-12-20T03:05:54;16.05;;;3.70;;
59788;SDS011;47353;51.614;5.530;2023-12-20T03:08:20;17.60;;;3.42;;
59788;SDS011;47353;51.614;5.530;2023-12-20T03:10:45;15.65;;;3.22;;
59788;SDS011;47353;51.614;5.530;2023-12-20T03:13:11;17.10;;;3.45;;
59788;SDS011;47353;51.614;5.530;2023-12-20T03:15:36;14.75;;;3.88;;
59788;SDS011;47353;51.614;5.530;2023-12-20T03:18:02;13.57;;;3.90;;
59788;SDS011;47353;51.614;5.530;2023-12-20T03:20:28;13.88;;;3.80;;
59788;SDS011;47353;51.614;5.530;2023-12-20T03:22:53;15.10;;;3.70;;
59788;SDS011;47353;51.614;5.530;2023-12-20T03:25:18;10.93;;;3.72;;
59788;SDS011;47353;51.614;5.530;2023-12-20T03:27:44;13.18;;;3.45;;
59788;SDS011;47353;51.614;5.530;2023-12-20T03:30:09;15.57;;;3.55;;
59788;SDS011;47353;51.614;5.530;2023-12-20T03:32:36;16.85;;;3.97;;
59788;SDS011;47353;51.614;5.530;2023-12-20T03:35:02;20.27;;;3.85;;
59788;SDS011;47353;51.614;5.530;2023-12-20T03:37:28;14.73;;;3.78;;
59788;SDS011;47353;51.614;5.530;2023-12-20T03:39:53;16.40;;;3.13;;
59788;SDS011;47353;51.614;5.530;2023-12-20T03:42:18;14.07;;;3.70;;
59788;SDS011;47353;51.614;5.530;2023-12-20T03:44:44;10.85;;;3.03;;
59788;SDS011;47353;51.614;5.530;2023-12-20T03:47:09;17.38;;;3.80;;
59788;SDS011;47353;51.614;5.530;2023-12-20T03:49:34;19.50;;;3.80;;
59788;SDS011;47353;51.614;5.530;2023-12-20T03:52:02;15.02;;;3.40;;
59788;SDS011;47353;51.614;5.530;2023-12-20T03:54:28;20.90;;;4.35;;
59788;SDS011;47353;51.614;5.530;2023-12-20T03:56:53;14.63;;;3.90;;
59788;SDS011;47353;51.614;5.530;2023-12-20T03:59:19;16.55;;;4.20;;
59788;SDS011;47353;51.614;5.530;2023-12-20T04:01:44;12.73;;;3.45;;
59788;SDS011;47353;51.614;5.530;2023-12-20T04:04:10;14.88;;;3.80;;
59788;SDS011;47353;51.614;5.530;2023-12-20T04:06:36;20.90;;;4.40;;
59788;SDS011;47353;51.614;5.530;2023-12-20T04:09:01;19.02;;;3.20;;
59788;SDS011;47353;51.614;5.530;2023-12-20T04:11:26;14.65;;;3.33;;
59788;SDS011;47353;51.614;5.530;2023-12-20T04:13:52;13.43;;;4.00;;
59788;SDS011;47353;51.614;5.530;2023-12-20T04:16:17;19.13;;;3.67;;
59788;SDS011;47353;51.614;5.530;2023-12-20T04:18:42;18.48;;;3.83;;
59788;SDS011;47353;51.614;5.530;2023-12-20T04:21:09;17.40;;;3.80;;
59788;SDS011;47353;51.614;5.530;2023-12-20T04:23:34;12.90;;;3.50;;
59788;SDS011;47353;51.614;5.530;2023-12-20T04:26:00;13.30;;;3.72;;
59788;SDS011;47353;51.614;5.530;2023-12-20T04:28:25;20.02;;;3.47;;
59788;SDS011;47353;51.614;5.530;2023-12-20T04:30:50;17.23;;;3.42;;
59788;SDS011;47353;51.614;5.530;2023-12-20T04:33:16;13.88;;;3.63;;
59788;SDS011;47353;51.614;5.530;2023-12-20T04:35:41;16.58;;;3.70;;
59788;SDS011;47353;51.614;5.530;2023-12-20T04:38:07;14.23;;;3.47;;
59788;SDS011;47353;51.614;5.530;2023-12-20T04:40:34;16.88;;;4.15;;
59788;SDS011;47353;51.614;5.530;2023-12-20T04:42:59;13.95;;;3.22;;
59788;SDS011;47353;51.614;5.530;2023-12-20T04:45:25;18.02;;;3.85;;
59788;SDS011;47353;51.614;5.530;2023-12-20T04:47:51;16.88;;;3.60;;
59788;SDS011;47353;51.614;5.530;2023-12-20T04:50:16;18.52;;;3.80;;
59788;SDS011;47353;51.614;5.530;2023-12-20T04:52:42;12.88;;;3.72;;
59788;SDS011;47353;51.614;5.530;2023-12-20T04:55:07;15.93;;;2.83;;
59788;SDS011;47353;51.614;5.530;2023-12-20T04:57:34;20.95;;;3.65;;
59788;SDS011;47353;51.614;5.530;2023-12-20T04:59:59;15.32;;;3.30;;
59788;SDS011;47353;51.614;5.530;2023-12-20T05:02:25;13.25;;;3.60;;
59788;SDS011;47353;51.614;5.530;2023-12-20T05:04:50;15.27;;;3.25;;
59788;SDS011;47353;51.614;5.530;2023-12-20T05:07:16;15.85;;;3.40;;
59788;SDS011;47353;51.614;5.530;2023-12-20T05:09:41;18.85;;;3.40;;
59788;SDS011;47353;51.614;5.530;2023-12-20T05:12:06;15.95;;;3.53;;
59788;SDS011;47353;51.614;5.530;2023-12-20T05:14:32;16.70;;;3.08;;
59788;SDS011;47353;51.614;5.530;2023-12-20T05:16:58;16.35;;;3.63;;
59788;SDS011;47353;51.614;5.530;2023-12-20T05:19:23;18.23;;;3.88;;
59788;SDS011;47353;51.614;5.530;2023-12-20T05:21:49;19.27;;;3.33;;
59788;SDS011;47353;51.614;5.530;2023-12-20T05:24:15;14.27;;;2.92;;
59788;SDS011;47353;51.614;5.530;2023-12-20T05:26:40;12.95;;;3.33;;
59788;SDS011;47353;51.614;5.530;2023-12-20T05:29:05;16.45;;;3.35;;
59788;SDS011;47353;51.614;5.530;2023-12-20T05:31:31;19.27;;;3.30;;
59788;SDS011;47353;51.614;5.530;2023-12-20T05:33:57;21.40;;;3.50;;
59788;SDS011;47353;51.614;5.530;2023-12-20T05:36:22;15.82;;;3.33;;
59788;SDS011;47353;51.614;5.530;2023-12-20T05:38:47;23.10;;;3.88;;
59788;SDS011;47353;51.614;5.530;2023-12-20T05:41:13;14.70;;;3.58;;
59788;SDS011;47353;51.614;5.530;2023-12-20T05:43:38;17.25;;;3.35;;
59788;SDS011;47353;51.614;5.530;2023-12-20T05:46:04;22.60;;;4.20;;
59788;SDS011;47353;51.614;5.530;2023-12-20T05:48:29;19.35;;;3.55;;
59788;SDS011;47353;51.614;5.530;2023-12-20T05:50:55;21.00;;;4.45;;
59788;SDS011;47353;51.614;5.530;2023-12-20T05:53:20;14.05;;;3.70;;
59788;SDS011;47353;51.614;5.530;2023-12-20T05:55:45;14.10;;;3.15;;
59788;SDS011;47353;51.614;5.530;2023-12-20T05:58:11;15.13;;;3.80;;
59788;SDS011;47353;51.614;5.530;2023-12-20T06:00:36;17.40;;;3.65;;
59788;SDS011;47353;51.614;5.530;2023-12-20T06:03:02;17.05;;;3.30;;
59788;SDS011;47353;51.614;5.530;2023-12-20T06:05:29;14.27;;;2.90;;
59788;SDS011;47353;51.614;5.530;2023-12-20T06:07:55;20.25;;;3.25;;
59788;SDS011;47353;51.614;5.530;2023-12-20T06:10:26;15.48;;;3.55;;
59788;SDS011;47353;51.614;5.530;2023-12-20T06:12:51;15.40;;;3.15;;
59788;SDS011;47353;51.614;5.530;2023-12-20T06:15:17;17.05;;;3.50;;
59788;SDS011;47353;51.614;5.530;2023-12-20T06:17:42;15.05;;;3.00;;
59788;SDS011;47353;51.614;5.530;2023-12-20T06:20:08;19.58;;;4.25;;
59788;SDS011;47353;51.614;5.530;2023-12-20T06:22:34;18.65;;;3.42;;
59788;SDS011;47353;51.614;5.530;2023-12-20T06:25:00;20.73;;;4.13;;
59788;SDS011;47353;51.614;5.530;2023-12-20T06:27:26;20.25;;;3.47;;
59788;SDS011;47353;51.614;5.530;2023-12-20T06:29:52;18.17;;;3.50;;
59788;SDS011;47353;51.614;5.530;2023-12-20T06:32:17;19.95;;;3.50;;
59788;SDS011;47353;51.614;5.530;2023-12-20T06:34:43;13.25;;;3.33;;
59788;SDS011;47353;51.614;5.530;2023-12-20T06:37:08;18.55;;;4.05;;
59788;SDS011;47353;51.614;5.530;2023-12-20T06:39:33;15.43;;;4.00;;
59788;SDS011;47353;51.614;5.530;2023-12-20T06:41:59;19.40;;;4.35;;
59788;SDS011;47353;51.614;5.530;2023-12-20T06:44:24;18.27;;;3.97;;
59788;SDS011;47353;51.614;5.530;2023-12-20T06:46:50;16.90;;;4.85;;
59788;SDS011;47353;51.614;5.530;2023-12-20T06:49:15;14.05;;;3.22;;
59788;SDS011;47353;51.614;5.530;2023-12-20T06:51:41;17.75;;;3.58;;
59788;SDS011;47353;51.614;5.530;2023-12-20T06:54:06;16.70;;;3.60;;
59788;SDS011;47353;51.614;5.530;2023-12-20T06:56:32;13.00;;;3.50;;
59788;SDS011;47353;51.614;5.530;2023-12-20T06:58:57;19.15;;;3.58;;
59788;SDS011;47353;51.614;5.530;2023-12-20T07:01:22;13.20;;;3.20;;
59788;SDS011;47353;51.614;5.530;2023-12-20T07:03:48;16.70;;;3.20;;
59788;SDS011;47353;51.614;5.530;2023-12-20T07:06:13;19.95;;;3.90;;
59788;SDS011;47353;51.614;5.530;2023-12-20T07:08:41;15.02;;;3.85;;
59788;SDS011;47353;51.614;5.530;2023-12-20T07:11:06;13.82;;;3.83;;
59788;SDS011;47353;51.614;5.530;2023-12-20T07:13:32;14.70;;;3.60;;
59788;SDS011;47353;51.614;5.530;2023-12-20T07:15:57;17.42;;;3.92;;
59788;SDS011;47353;51.614;5.530;2023-12-20T07:18:23;17.05;;;3.72;;
59788;SDS011;47353;51.614;5.530;2023-12-20T07:20:48;16.85;;;4.18;;
59788;SDS011;47353;51.614;5.530;2023-12-20T07:23:14;19.42;;;4.95;;
59788;SDS011;47353;51.614;5.530;2023-12-20T07:25:39;20.08;;;4.45;;
59788;SDS011;47353;51.614;5.530;2023-12-20T07:28:05;21.10;;;4.65;;
59788;SDS011;47353;51.614;5.530;2023-12-20T07:30:30;14.60;;;3.75;;
59788;SDS011;47353;51.614;5.530;2023-12-20T07:32:55;22.15;;;5.28;;
59788;SDS011;47353;51.614;5.530;2023-12-20T07:35:22;17.52;;;4.88;;
59788;SDS011;47353;51.614;5.530;2023-12-20T07:37:48;18.80;;;4.70;;
59788;SDS011;47353;51.614;5.530;2023-12-20T07:40:14;18.33;;;4.80;;
59788;SDS011;47353;51.614;5.530;2023-12-20T07:42:42;16.08;;;4.45;;
59788;SDS011;47353;51.614;5.530;2023-12-20T07:45:07;12.65;;;4.18;;
59788;SDS011;47353;51.614;5.530;2023-12-20T07:47:34;19.48;;;4.65;;
59788;SDS011;47353;51.614;5.530;2023-12-20T07:49:59;16.92;;;4.60;;
59788;SDS011;47353;51.614;5.530;2023-12-20T07:52:25;17.08;;;4.60;;
59788;SDS011;47353;51.614;5.530;2023-12-20T07:54:51;16.38;;;3.97;;
59788;SDS011;47353;51.614;5.530;2023-12-20T07:57:16;20.92;;;4.63;;
59788;SDS011;47353;51.614;5.530;2023-12-20T07:59:42;18.35;;;4.65;;
59788;SDS011;47353;51.614;5.530;2023-12-20T08:02:09;19.17;;;3.97;;
59788;SDS011;47353;51.614;5.530;2023-12-20T08:04:34;15.43;;;4.07;;
59788;SDS011;47353;51.614;5.530;2023-12-20T08:07:00;17.15;;;4.40;;
59788;SDS011;47353;51.614;5.530;2023-12-20T08:09:25;18.85;;;4.13;;
59788;SDS011;47353;51.614;5.530;2023-12-20T08:11:51;14.80;;;4.03;;
59788;SDS011;47353;51.614;5.530;2023-12-20T08:14:16;17.73;;;4.13;;
59788;SDS011;47353;51.614;5.530;2023-12-20T08:16:42;16.95;;;4.10;;
59788;SDS011;47353;51.614;5.530;2023-12-20T08:19:07;15.90;;;4.13;;
59788;SDS011;47353;51.614;5.530;2023-12-20T08:21:32;18.25;;;3.92;;
59788;SDS011;47353;51.614;5.530;2023-12-20T08:23:58;18.33;;;4.57;;
59788;SDS011;47353;51.614;5.530;2023-12-20T08:26:25;16.25;;;4.22;;
59788;SDS011;47353;51.614;5.530;2023-12-20T08:28:51;13.10;;;3.70;;
59788;SDS011;47353;51.614;5.530;2023-12-20T08:31:17;19.08;;;4.72;;
59788;SDS011;47353;51.614;5.530;2023-12-20T08:33:43;17.77;;;3.70;;
59788;SDS011;47353;51.614;5.530;2023-12-20T08:36:09;15.98;;;3.50;;
59788;SDS011;47353;51.614;5.530;2023-12-20T08:38:35;14.43;;;3.30;;
59788;SDS011;47353;51.614;5.530;2023-12-20T08:41:00;20.90;;;4.20;;
59788;SDS011;47353;51.614;5.530;2023-12-20T08:43:27;15.55;;;4.13;;
59788;SDS011;47353;51.614;5.530;2023-12-20T08:45:53;16.38;;;3.58;;
59788;SDS011;47353;51.614;5.530;2023-12-20T08:48:19;15.35;;;4.25;;
59788;SDS011;47353;51.614;5.530;2023-12-20T08:50:44;17.23;;;4.00;;
59788;SDS011;47353;51.614;5.530;2023-12-20T08:53:10;13.40;;;3.10;;
59788;SDS011;47353;51.614;5.530;2023-12-20T08:55:35;16.85;;;3.72;;
59788;SDS011;47353;51.614;5.530;2023-12-20T08:58:00;11.27;;;3.97;;
59788;SDS011;47353;51.614;5.530;2023-12-20T09:00:26;17.17;;;4.05;;
59788;SDS011;47353;51.614;5.530;2023-12-20T09:02:53;18.92;;;4.68;;
59788;SDS011;47353;51.614;5.530;2023-12-20T09:05:19;17.10;;;3.83;;
59788;SDS011;47353;51.614;5.530;2023-12-20T09:07:45;19.23;;;4.25;;
59788;SDS011;47353;51.614;5.530;2023-12-20T09:10:10;17.48;;;3.42;;
59788;SDS011;47353;51.614;5.530;2023-12-20T09:12:35;17.08;;;3.75;;
59788;SDS011;47353;51.614;5.530;2023-12-20T09:15:04;16.00;;;3.45;;
59788;SDS011;47353;51.614;5.530;2023-12-20T09:17:30;15.85;;;4.57;;
59788;SDS011;47353;51.614;5.530;2023-12-20T09:19:56;12.73;;;3.28;;
59788;SDS011;47353;51.614;5.530;2023-12-20T09:22:21;19.73;;;4.30;;
59788;SDS011;47353;51.614;5.530;2023-12-20T09:24:47;16.42;;;3.70;;
59788;SDS011;47353;51.614;5.530;2023-12-20T09:27:12;14.85;;;3.47;;
59788;SDS011;47353;51.614;5.530;2023-12-20T09:29:37;16.40;;;3.83;;
59788;SDS011;47353;51.614;5.530;2023-12-20T09:32:03;18.20;;;3.90;;
59788;SDS011;47353;51.614;5.530;2023-12-20T09:34:28;14.27;;;3.10;;
59788;SDS011;47353;51.614;5.530;2023-12-20T09:36:54;16.38;;;3.85;;
59788;SDS011;47353;51.614;5.530;2023-12-20T09:39:20;17.77;;;3.97;;
59788;SDS011;47353;51.614;5.530;2023-12-20T09:41:51;15.77;;;3.60;;
59788;SDS011;47353;51.614;5.530;2023-12-20T09:44:31;12.20;;;3.08;;
59788;SDS011;47353;51.614;5.530;2023-12-20T09:46:59;12.48;;;3.47;;
59788;SDS011;47353;51.614;5.530;2023-12-20T09:49:28;12.88;;;3.10;;
59788;SDS011;47353;51.614;5.530;2023-12-20T09:51:55;17.23;;;4.07;;
59788;SDS011;47353;51.614;5.530;2023-12-20T09:54:22;17.83;;;3.95;;
59788;SDS011;47353;51.614;5.530;2023-12-20T09:56:48;15.00;;;3.50;;
59788;SDS011;47353;51.614;5.530;2023-12-20T09:59:14;21.15;;;4.18;;
59788;SDS011;47353;51.614;5.530;2023-12-20T10:01:40;12.75;;;3.00;;
59788;SDS011;47353;51.614;5.530;2023-12-20T10:04:07;17.70;;;3.33;;
59788;SDS011;47353;51.614;5.530;2023-12-20T10:06:42;19.25;;;4.28;;
59788;SDS011;47353;51.614;5.530;2023-12-20T10:09:11;20.13;;;3.88;;
59788;SDS011;47353;51.614;5.530;2023-12-20T10:11:37;14.95;;;3.65;;
59788;SDS011;47353;51.614;5.530;2023-12-20T10:14:03;13.23;;;3.50;;
59788;SDS011;47353;51.614;5.530;2023-12-20T10:16:29;11.93;;;3.15;;
59788;SDS011;47353;51.614;5.530;2023-12-20T10:18:55;10.68;;;3.13;;
59788;SDS011;47353;51.614;5.530;2023-12-20T10:21:25;18.35;;;4.10;;
59788;SDS011;47353;51.614;5.530;2023-12-20T10:23:51;20.75;;;3.65;;
59788;SDS011;47353;51.614;5.530;2023-12-20T10:26:22;15.63;;;3.03;;
59788;SDS011;47353;51.614;5.530;2023-12-20T10:28:55;15.20;;;3.38;;
59788;SDS011;47353;51.614;5.530;2023-12-20T10:31:31;17.98;;;3.83;;
59788;SDS011;47353;51.614;5.530;2023-12-20T10:33:59;13.63;;;2.90;;
59788;SDS011;47353;51.614;5.530;2023-12-20T10:36:25;15.90;;;3.33;;
59788;SDS011;47353;51.614;5.530;2023-12-20T10:38:52;17.02;;;3.33;;
59788;SDS011;47353;51.614;5.530;2023-12-20T10:41:28;20.08;;;3.38;;
59788;SDS011;47353;51.614;5.530;2023-12-20T10:44:04;14.35;;;3.70;;
59788;SDS011;47353;51.614;5.530;2023-12-20T10:46:30;16.92;;;3.45;;
59788;SDS011;47353;51.614;5.530;2023-12-20T10:48:59;15.07;;;3.70;;
59788;SDS011;47353;51.614;5.530;2023-12-20T10:51:27;18.85;;;3.03;;
59788;SDS011;47353;51.614;5.530;2023-12-20T10:53:54;16.83;;;3.60;;
59788;SDS011;47353;51.614;5.530;2023-12-20T10:56:21;17.50;;;3.45;;
59788;SDS011;47353;51.614;5.530;2023-12-20T10:58:48;13.40;;;3.25;;
59788;SDS011;47353;51.614;5.530;2023-12-20T11:01:14;19.55;;;3.75;;
59788;SDS011;47353;51.614;5.530;2023-12-20T11:03:43;12.82;;;3.78;;
59788;SDS011;47353;51.614;5.530;2023-12-20T11:14:07;19.80;;;3.88;;
59788;SDS011;47353;51.614;5.530;2023-12-20T11:16:40;18.08;;;3.45;;
59788;SDS011;47353;51.614;5.530;2023-12-20T11:19:06;15.02;;;3.50;;
59788;SDS011;47353;51.614;5.530;2023-12-20T11:21:32;16.60;;;3.58;;
59788;SDS011;47353;51.614;5.530;2023-12-20T11:23:57;19.95;;;3.45;;
59788;SDS011;47353;51.614;5.530;2023-12-20T11:26:27;15.25;;;3.42;;
59788;SDS011;47353;51.614;5.530;2023-12-20T11:28:54;15.15;;;3.50;;
59788;SDS011;47353;51.614;5.530;2023-12-20T11:31:19;15.43;;;3.60;;
59788;SDS011;47353;51.614;5.530;2023-12-20T11:33:45;12.48;;;2.75;;
59788;SDS011;47353;51.614;5.530;2023-12-20T11:36:14;13.80;;;3.30;;
59788;SDS011;47353;51.614;5.530;2023-12-20T11:38:56;15.27;;;3.33;;
59788;SDS011;47353;51.614;5.530;2023-12-20T11:41:22;15.15;;;3.10;;
59788;SDS011;47353;51.614;5.530;2023-12-20T11:43:49;13.63;;;3.22;;
59788;SDS011;47353;51.614;5.530;2023-12-20T11:46:21;11.63;;;2.95;;
59788;SDS011;47353;51.614;5.530;2023-12-20T11:48:47;14.98;;;3.10;;
59788;SDS011;47353;51.614;5.530;2023-12-20T11:51:13;11.88;;;3.20;;
59788;SDS011;47353;51.614;5.530;2023-12-20T11:53:42;13.40;;;3.33;;
59788;SDS011;47353;51.614;5.530;2023-12-20T11:56:08;16.95;;;3.28;;
59788;SDS011;47353;51.614;5.530;2023-12-20T11:58:35;10.93;;;2.67;;
59788;SDS011;47353;51.614;5.530;2023-12-20T12:01:00;15.18;;;3.17;;
59788;SDS011;47353;51.614;5.530;2023-12-20T12:03:27;19.02;;;3.88;;
59788;SDS011;47353;51.614;5.530;2023-12-20T12:05:53;12.35;;;3.03;;
59788;SDS011;47353;51.614;5.530;2023-12-20T12:08:18;11.80;;;3.47;;
59788;SDS011;47353;51.614;5.530;2023-12-20T12:10:43;15.48;;;3.33;;
59788;SDS011;47353;51.614;5.530;2023-12-20T12:13:09;17.15;;;3.17;;
59788;SDS011;47353;51.614;5.530;2023-12-20T12:15:36;17.98;;;3.40;;
59788;SDS011;47353;51.614;5.530;2023-12-20T12:18:01;14.20;;;3.17;;
59788;SDS011;47353;51.614;5.530;2023-12-20T12:20:27;14.20;;;3.17;;
59788;SDS011;47353;51.614;5.530;2023-12-20T12:25:25;14.50;;;3.03;;
59788;SDS011;47353;51.614;5.530;2023-12-20T12:27:52;15.50;;;3.22;;
59788;SDS011;47353;51.614;5.530;2023-12-20T12:30:17;17.42;;;3.22;;
59788;SDS011;47353;51.614;5.530;2023-12-20T12:32:46;17.10;;;3.00;;
59788;SDS011;47353;51.614;5.530;2023-12-20T12:35:11;17.70;;;3.33;;
59788;SDS011;47353;51.614;5.530;2023-12-20T12:37:38;14.00;;;3.10;;
59788;SDS011;47353;51.614;5.530;2023-12-20T12:40:14;18.13;;;2.92;;
59788;SDS011;47353;51.614;5.530;2023-12-20T12:42:42;15.95;;;2.80;;
59788;SDS011;47353;51.614;5.530;2023-12-20T12:45:10;8.63;;;2.60;;
59788;SDS011;47353;51.614;5.530;2023-12-20T12:47:39;15.45;;;3.17;;
59788;SDS011;47353;51.614;5.530;2023-12-20T12:50:05;17.70;;;2.95;;
59788;SDS011;47353;51.614;5.530;2023-12-20T12:52:31;15.07;;;3.30;;
59788;SDS011;47353;51.614;5.530;2023-12-20T12:54:56;14.05;;;2.97;;
59788;SDS011;47353;51.614;5.530;2023-12-20T12:57:22;14.65;;;2.85;;
59788;SDS011;47353;51.614;5.530;2023-12-20T12:59:48;18.02;;;3.40;;
59788;SDS011;47353;51.614;5.530;2023-12-20T13:02:13;15.23;;;2.88;;
59788;SDS011;47353;51.614;5.530;2023-12-20T13:04:39;12.70;;;2.92;;
59788;SDS011;47353;51.614;5.530;2023-12-20T13:07:06;13.52;;;3.15;;
59788;SDS011;47353;51.614;5.530;2023-12-20T13:09:32;16.70;;;3.03;;
59788;SDS011;47353;51.614;5.530;2023-12-20T13:11:57;15.20;;;2.78;;
59788;SDS011;47353;51.614;5.530;2023-12-20T13:14:23;14.43;;;3.00;;
59788;SDS011;47353;51.614;5.530;2023-12-20T13:16:49;15.02;;;3.08;;
59788;SDS011;47353;51.614;5.530;2023-12-20T13:19:14;15.23;;;2.95;;
59788;SDS011;47353;51.614;5.530;2023-12-20T13:21:40;18.70;;;3.28;;
59788;SDS011;47353;51.614;5.530;2023-12-20T13:24:05;14.25;;;3.40;;
59788;SDS011;47353;51.614;5.530;2023-12-20T13:26:31;14.73;;;3.25;;
59788;SDS011;47353;51.614;5.530;2023-12-20T13:28:57;12.18;;;2.58;;
59788;SDS011;47353;51.614;5.530;2023-12-20T13:31:23;16.83;;;3.10;;
59788;SDS011;47353;51.614;5.530;2023-12-20T13:33:48;11.13;;;2.67;;
59788;SDS011;47353;51.614;5.530;2023-12-20T13:36:14;13.70;;;3.15;;
59788;SDS011;47353;51.614;5.530;2023-12-20T13:38:39;15.20;;;3.45;;
59788;SDS011;47353;51.614;5.530;2023-12-20T13:41:05;16.10;;;3.10;;
59788;SDS011;47353;51.614;5.530;2023-12-20T13:43:31;12.57;;;3.53;;
59788;SDS011;47353;51.614;5.530;2023-12-20T13:45:57;14.80;;;3.60;;
59788;SDS011;47353;51.614;5.530;2023-12-20T13:48:26;15.52;;;3.22;;
59788;SDS011;47353;51.614;5.530;2023-12-20T13:50:51;16.48;;;3.70;;
59788;SDS011;47353;51.614;5.530;2023-12-20T13:53:17;16.08;;;3.50;;
59788;SDS011;47353;51.614;5.530;2023-12-20T13:55:42;12.07;;;2.70;;
59788;SDS011;47353;51.614;5.530;2023-12-20T13:58:07;16.55;;;3.58;;
59788;SDS011;47353;51.614;5.530;2023-12-20T14:00:35;12.75;;;3.33;;
59788;SDS011;47353;51.614;5.530;2023-12-20T14:03:01;13.65;;;3.05;;
59788;SDS011;47353;51.614;5.530;2023-12-20T14:05:27;18.33;;;3.30;;
59788;SDS011;47353;51.614;5.530;2023-12-20T14:07:53;15.75;;;3.53;;
59788;SDS011;47353;51.614;5.530;2023-12-20T14:10:18;17.02;;;4.40;;
59788;SDS011;47353;51.614;5.530;2023-12-20T14:12:44;13.93;;;3.25;;
59788;SDS011;47353;51.614;5.530;2023-12-20T14:15:09;20.60;;;5.03;;
59788;SDS011;47353;51.614;5.530;2023-12-20T14:17:39;20.50;;;3.70;;
59788;SDS011;47353;51.614;5.530;2023-12-20T14:20:07;17.42;;;3.05;;
59788;SDS011;47353;51.614;5.530;2023-12-20T14:22:33;14.35;;;3.78;;
59788;SDS011;47353;51.614;5.530;2023-12-20T14:24:59;16.02;;;3.53;;
59788;SDS011;47353;51.614;5.530;2023-12-20T14:27:24;12.95;;;2.78;;
59788;SDS011;47353;51.614;5.530;2023-12-20T14:29:53;16.83;;;3.55;;
59788;SDS011;47353;51.614;5.530;2023-12-20T14:32:18;13.93;;;3.00;;
59788;SDS011;47353;51.614;5.530;2023-12-20T14:34:44;14.77;;;3.90;;
59788;SDS011;47353;51.614;5.530;2023-12-20T14:37:12;15.20;;;3.50;;
59788;SDS011;47353;51.614;5.530;2023-12-20T14:39:38;18.35;;;4.05;;